Latest Weather Observations for Edinburgh

IDS60801

Issued at 5:01 pm CDT Thursday 23 February 2017 (issued every 30 minutes, with the page automatically refreshed every 10 minutes)

About weather observations | Map of weather stations | Latest weather observations for SA | Other Formats
Station Details ID: 023083 Name: EDINBURGH RAAF Lat: -34.71 Lon: 138.62 Height: 16.54 m
Data from the previous 72 hours. | See also: Recent months at Edinburgh
Date/Time
CDT
Temp
°C
App
Temp
°C
Dew
Point
°C
Rel
Hum
%
Delta-T
°C
Wind Press
QNH
hPa
Press
MSL
hPa
Rain since
9am
mm
Dir  Spd
km/h
Gust
km/h
Spd
kts
Gust
kts
23/05:00pm 22.7 18.7 11.7 49 6.2 WSW 24 32 13 17 1020.7 1020.6 0.0
23/04:30pm 23.6 20.0 10.6 44 7.2 WSW 20 28 11 15 1020.7 1020.6 0.0
23/04:00pm 23.4 19.1 9.4 41 7.6 WSW 22 28 12 15 1020.7 1020.6 0.0
23/03:30pm 23.3 18.8 8.6 39 7.8 WSW 22 28 12 15 1020.8 1020.7 0.0
23/03:00pm 23.5 19.6 9.5 41 7.6 WSW 20 32 11 17 1020.8 1020.7 0.0
23/02:30pm 23.3 19.4 9.3 41 7.5 WSW 20 26 11 14 1021.0 1020.9 0.0
23/02:00pm 23.2 19.2 10.6 45 7.0 WSW 22 32 12 17 1020.9 1020.8 0.0
23/01:30pm 23.4 19.4 10.5 44 7.1 SW 22 33 12 18 1020.9 1020.8 0.0
23/01:00pm 23.4 21.0 11.5 47 6.7 SSW 15 24 8 13 1020.8 1020.7 0.0
23/12:30pm 22.9 19.2 10.3 45 6.9 SW 20 30 11 16 1021.2 1021.1 0.0
23/12:00pm 22.4 20.1 10.5 47 6.5 S 13 26 7 14 1021.3 1021.2 0.0
23/11:30am 21.0 18.0 10.5 51 5.7 SW 17 24 9 13 1021.4 1021.3 0.0
23/11:00am 21.0 18.5 11.1 53 5.5 SSW 15 22 8 12 1021.4 1021.3 0.0
23/10:30am 20.5 17.4 11.7 57 4.9 SSW 19 26 10 14 1021.3 1021.2 0.0
23/10:00am 20.0 16.8 12.0 60 4.5 SSW 20 28 11 15 1020.9 1020.8 0.0
23/09:30am 19.9 16.9 12.7 63 4.0 SSW 20 26 11 14 1020.6 1020.5 0.0
23/09:00am 19.7 16.8 12.2 62 4.2 S 19 24 10 13 1020.2 1020.1 0.0
23/08:30am 19.2 16.4 13.2 68 3.4 SSW 20 24 11 13 1019.8 1019.7 0.0
23/08:00am 18.8 16.7 13.6 72 3.0 SSW 17 22 9 12 1019.2 1019.1 0.0
23/07:30am 17.1 15.3 12.0 72 2.8 SW 13 17 7 9 1018.7 1018.6 0.0
23/07:00am 17.6 15.2 12.5 72 2.8 SW 17 20 9 11 1018.2 1018.1 0.0
23/06:30am 18.3 14.6 12.7 70 3.1 SW 24 30 13 16 1017.7 1017.6 0.0
23/06:00am 18.3 15.5 12.7 70 3.1 SW 19 22 10 12 1017.6 1017.5 0.0
23/05:30am 18.6 15.7 12.8 69 3.2 WSW 20 28 11 15 1017.2 1017.1 0.0
23/05:00am 18.2 15.2 12.6 70 3.1 WSW 20 28 11 15 1017.1 1017.0 0.0
23/04:30am 18.1 15.2 12.3 69 3.2 WSW 19 24 10 13 1016.9 1016.8 0.0
23/04:00am 17.7 14.4 11.7 68 3.3 WSW 20 26 11 14 1016.9 1016.8 0.0
23/03:30am 17.8 14.1 11.6 67 3.4 WSW 22 28 12 15 1016.8 1016.7 0.0
23/03:00am 17.5 14.8 11.8 69 3.1 SW 17 20 9 11 1016.8 1016.7 0.0
23/02:30am 17.7 15.0 11.7 68 3.3 WSW 17 20 9 11 1017.0 1016.9 0.0
23/02:00am 17.7 15.1 11.9 69 3.2 WSW 17 20 9 11 1017.1 1017.0 0.0
23/01:30am 18.6 14.4 12.4 67 3.4 SW 26 33 14 18 1017.0 1016.9 0.0
23/01:00am 18.7 15.4 12.9 69 3.3 WSW 22 28 12 15 1017.2 1017.1 0.0
23/12:30am 19.1 15.0 12.8 67 3.5 WSW 26 33 14 18 1017.0 1016.9 0.0
23/12:00am 19.2 15.8 12.5 65 3.7 WSW 22 30 12 16 1016.9 1016.8 0.0
 
Date/Time
CDT
Temp
°C
App
Temp
°C
Dew
Point
°C
Rel
Hum
%
Delta-T
°C
Wind Press
QNH
hPa
Press
MSL
hPa
Rain since
9am
mm
Dir  Spd
km/h
Gust
km/h
Spd
kts
Gust
kts
22/11:30pm 19.2 16.4 12.5 65 3.7 WSW 19 26 10 14 1017.0 1016.9 0.0
22/11:00pm 20.0 17.5 13.5 66 3.7 WSW 19 28 10 15 1016.9 1016.8 0.0
22/10:30pm 19.8 16.1 12.8 64 3.9 WSW 24 33 13 18 1016.5 1016.4 0.0
22/10:00pm 20.0 17.0 12.7 63 4.1 WSW 20 28 11 15 1016.2 1016.1 0.0
22/09:30pm 20.4 14.9 11.9 58 4.7 WSW 32 39 17 21 1015.6 1015.5 0.0
22/09:00pm 20.6 15.9 12.1 58 4.8 WSW 28 35 15 19 1015.3 1015.2 0.0
22/08:30pm 21.0 16.2 11.6 55 5.2 WSW 28 35 15 19 1014.6 1014.5 0.0
22/08:00pm 21.4 15.5 10.3 49 6.0 WSW 32 43 17 23 1014.1 1014.0 0.0
22/07:30pm 22.3 16.3 10.1 46 6.6 WSW 32 43 17 23 1013.4 1013.3 0.0
22/07:00pm 23.4 17.3 9.8 42 7.4 WSW 32 41 17 22 1013.2 1013.1 0.0
22/06:30pm 23.9 17.2 9.5 40 7.8 WSW 35 43 19 23 1012.8 1012.7 0.0
22/06:00pm 24.3 17.6 9.8 40 7.9 WSW 35 44 19 24 1012.7 1012.6 0.0
22/05:30pm 25.4 18.3 10.8 40 8.2 WSW 39 48 21 26 1012.3 1012.2 0.0
22/05:00pm 25.1 18.2 9.0 36 8.7 WSW 35 46 19 25 1012.2 1012.1 0.0
22/04:30pm 25.8 18.3 7.9 32 9.6 WSW 37 46 20 25 1012.0 1011.9 0.0
22/04:00pm 25.7 17.9 6.8 30 9.9 W 37 46 20 25 1011.8 1011.7 0.0
22/03:30pm 26.0 17.9 7.1 30 10.0 W 39 50 21 27 1011.5 1011.4 0.0
22/03:00pm 25.7 17.9 8.2 33 9.4 W 39 50 21 27 1011.3 1011.2 0.0
22/02:30pm 25.9 17.7 9.7 36 8.9 WSW 43 52 23 28 1011.3 1011.2 0.0
22/02:00pm 27.1 20.2 10.3 35 9.4 W 37 46 20 25 1010.9 1010.8 0.0
22/01:55pm 28.0 21.3 9.8 32 10.2 WNW 35 46 19 25 1010.8 1010.7 0.0
22/01:33pm 27.9 22.2 8.2 29 10.7 WNW 28 50 15 27 1010.6 1010.5 0.0
22/01:30pm 28.1 23.4 9.4 31 10.4 NW 24 37 13 20 1010.6 1010.5 0.0
22/01:00pm 25.5 20.6 8.5 34 9.2 W 24 33 13 18 1010.7 1010.6 0.0
22/12:30pm 25.6 20.8 10.2 38 8.6 W 26 35 14 19 1011.1 1011.0 0.0
22/12:00pm 25.1 20.0 12.0 44 7.5 WSW 30 39 16 21 1011.1 1011.0 0.0
22/11:30am 24.8 19.3 14.6 53 6.1 WSW 37 48 20 26 1011.5 1011.4 0.0
22/11:00am 25.9 19.3 15.3 52 6.4 WSW 44 59 24 32 1011.5 1011.4 0.0
22/10:45am 26.6 18.9 13.3 43 7.8 WNW 46 61 25 33 1011.1 1011.0 0.0
22/10:32am 28.8 18.4 4.3 21 12.5 NW 48 67 26 36 1010.7 1010.6 0.0
22/10:30am 28.9 18.2 4.4 21 12.5 NW 50 67 27 36 1010.7 1010.6 0.0
22/10:00am 30.4 20.4 0.9 15 14.3 NNW 43 67 23 36 1009.9 1009.8 0.0
22/09:58am 31.0 21.3 0.4 14 14.8 NNW 41 57 22 31 1009.8 1009.7 0.0
22/09:34am 30.2 22.2 0.7 15 14.3 N 32 52 17 28 1009.1 1009.0 0.0
22/09:30am 30.2 23.1 1.6 16 14.1 N 28 37 15 20 1009.2 1009.1 0.0
22/09:00am 28.1 21.7 3.0 20 12.5 NNE 26 35 14 19 1008.9 1008.8 0.0
22/08:30am 26.2 19.7 2.8 22 11.5 NE 26 33 14 18 1008.8 1008.7 0.0
22/08:00am 24.4 17.9 2.5 24 10.5 NE 26 32 14 17 1008.3 1008.3 0.0
22/07:30am 23.5 17.3 2.4 25 10.1 NE 24 32 13 17 1008.1 1008.1 0.0
22/07:00am 22.8 16.2 2.3 26 9.7 NE 26 32 14 17 1008.0 1008.0 0.0
22/06:30am 22.6 16.4 2.1 26 9.7 NE 24 32 13 17 1007.9 1007.9 0.0
22/06:00am 22.4 15.8 2.0 26 9.6 NE 26 32 14 17 1008.1 1008.1 0.0
22/05:30am 22.4 15.8 2.0 26 9.6 NE 26 30 14 16 1008.2 1008.2 0.0
22/05:00am 22.7 15.7 1.7 25 9.8 NE 28 33 15 18 1008.3 1008.3 0.0
22/04:30am 22.9 16.1 0.7 23 10.2 NE 26 32 14 17 1008.4 1008.4 0.0
22/04:00am 23.3 16.3 -0.2 21 10.6 NE 26 32 14 17 1008.8 1008.7 0.0
22/03:30am 23.6 15.9 0.0 21 10.8 NE 30 39 16 21 1008.8 1008.7 0.0
22/03:00am 23.2 15.9 0.3 22 10.5 NE 28 35 15 19 1009.7 1009.6 0.0
22/02:30am 23.1 16.8 1.5 24 10.1 NE 24 32 13 17 1009.8 1009.7 0.0
22/02:00am 22.2 16.9 2.8 28 9.2 NNE 20 24 11 13 1010.4 1010.3 0.0
22/01:30am 21.9 16.8 3.1 29 9.0 NNE 19 24 10 13 1010.9 1010.8 0.0
22/01:00am 22.1 17.4 3.3 29 9.0 NNE 17 20 9 11 1011.1 1011.0 0.0
22/12:30am 23.8 18.2 3.2 26 10.0 NE 22 28 12 15 1011.4 1011.3 0.0
22/12:00am 24.6 18.2 3.3 25 10.4 NE 26 32 14 17 1011.6 1011.5 0.0
 
Date/Time
CDT
Temp
°C
App
Temp
°C
Dew
Point
°C
Rel
Hum
%
Delta-T
°C
Wind Press
QNH
hPa
Press
MSL
hPa
Rain since
9am
mm
Dir  Spd
km/h
Gust
km/h
Spd
kts
Gust
kts
21/11:30pm 24.8 18.5 3.5 25 10.4 NE 26 35 14 19 1011.9 1011.8 0.0
21/11:00pm 24.9 18.9 3.5 25 10.5 NE 24 30 13 16 1012.2 1012.1 0.0
21/10:30pm 25.4 19.8 3.4 24 10.8 NE 22 30 12 16 1012.7 1012.6 0.0
21/10:00pm 24.1 19.7 4.5 28 9.7 NE 17 22 9 12 1012.7 1012.6 0.0
21/09:30pm 24.5 21.6 4.8 28 9.9 ENE 9 15 5 8 1012.8 1012.7 0.0
21/09:00pm 24.5 22.0 6.7 32 9.2 NE 9 22 5 12 1012.6 1012.5 0.0
21/08:30pm 25.4 23.6 7.1 31 9.6 S 6 9 3 5 1012.6 1012.5 0.0
21/08:00pm 26.6 24.5 6.6 28 10.5 S 7 9 4 5 1012.3 1012.2 0.0
21/07:30pm 27.0 24.6 6.9 28 10.6 SSW 9 9 5 5 1012.1 1012.0 0.0
21/07:00pm 28.2 25.3 6.3 25 11.5 SW 11 15 6 8 1011.9 1011.8 0.0
21/06:30pm 28.5 24.4 6.0 24 11.8 SW 17 22 9 12 1011.9 1011.8 0.0
21/06:00pm 29.1 25.0 7.7 26 11.6 SW 19 26 10 14 1012.0 1011.9 0.0
21/05:30pm 29.7 25.2 7.0 24 12.2 WSW 20 26 11 14 1012.2 1012.1 0.0
21/05:00pm 29.7 25.3 7.6 25 12.0 WSW 20 32 11 17 1012.5 1012.4 0.0
21/04:30pm 30.3 27.0 8.1 25 12.2 SW 15 22 8 12 1012.8 1012.7 0.0
21/04:00pm 29.7 26.5 7.0 24 12.2 WSW 13 22 7 12 1013.3 1013.2 0.0
21/03:30pm 29.2 25.9 6.6 24 12.0 SSW 13 20 7 11 1013.8 1013.7 0.0
21/03:00pm 29.0 25.4 5.1 22 12.4 WNW 13 20 7 11 1014.5 1014.4 0.0
21/02:30pm 29.2 24.8 7.2 25 11.8 W 20 35 11 19 1014.9 1014.8 0.0
21/02:00pm 28.9 25.5 5.7 23 12.1 NNW 13 26 7 14 1015.6 1015.5 0.0
21/01:30pm 28.2 24.0 5.7 24 11.7 NNE 17 26 9 14 1016.0 1015.9 0.0
21/01:00pm 27.3 24.6 5.6 25 11.2 NNE 9 24 5 13 1016.4 1016.3 0.0
21/12:30pm 27.2 23.8 6.0 26 11.0 NNE 13 28 7 15 1016.9 1016.8 0.0
21/12:00pm 26.6 23.5 7.1 29 10.3 NNE 13 19 7 10 1017.6 1017.5 0.0
21/11:30am 25.5 20.4 6.2 29 10.0 NNE 22 35 12 19 1018.1 1018.0 0.0
21/11:00am 23.6 18.4 5.5 31 9.1 NE 22 30 12 16 1018.5 1018.4 0.0
21/10:30am 22.5 16.9 5.4 33 8.5 NE 24 33 13 18 1018.7 1018.6 0.0
21/10:00am 21.6 15.0 5.9 36 7.9 NE 30 35 16 19 1018.8 1018.7 0.0
21/09:30am 20.7 15.3 6.3 39 7.2 NE 24 32 13 17 1019.0 1018.9 0.0
21/09:00am 19.3 13.3 5.4 40 6.8 NE 26 37 14 20 1018.9 1018.8 0.2
21/08:30am 15.7 14.0 7.5 58 4.1 NNE 6 7 3 4 1018.9 1018.8 0.2
21/08:00am 13.3 11.9 7.3 67 2.9 NNE 4 7 2 4 1018.9 1018.8 0.2
21/07:30am 11.6 9.1 6.5 71 2.4 NNE 9 11 5 6 1018.3 1018.2 0.2
21/07:00am 12.9 10.4 6.5 65 3.1 ENE 9 11 5 6 1018.1 1018.0 0.2
21/06:30am 12.7 10.1 6.1 64 3.1 ENE 9 11 5 6 1018.0 1017.9 0.2
21/06:00am 13.5 10.5 5.9 60 3.6 ENE 11 13 6 7 1017.8 1017.7 0.2
21/05:30am 12.5 9.6 6.3 66 2.9 NE 11 15 6 8 1017.9 1017.8 0.2
21/05:00am 12.6 9.9 7.3 70 2.6 NE 11 17 6 9 1017.9 1017.8 0.2
21/04:30am 12.0 9.2 7.1 72 2.3 NNE 11 13 6 7 1017.9 1017.8 0.2
21/04:00am 11.9 10.1 7.8 76 2.0 NNE 7 11 4 6 1017.9 1017.8 0.2
21/03:30am 12.0 11.1 6.1 67 2.8 CALM 0 0 0 0 1017.9 1017.8 0.2
21/03:00am 13.6 12.2 7.4 66 3.0 SE 4 7 2 4 1018.1 1018.0 0.2
21/02:30am 13.9 12.0 7.7 66 3.1 ESE 7 9 4 5 1018.4 1018.3 0.2
21/02:00am 14.0 12.6 7.1 63 3.4 E 4 7 2 4 1018.7 1018.6 0.2
21/01:30am 14.3 12.5 7.8 65 3.2 ENE 7 13 4 7 1018.7 1018.6 0.2
21/01:00am 15.0 12.7 7.5 61 3.7 E 9 13 5 7 1018.8 1018.7 0.2
21/12:30am 15.0 13.2 7.8 62 3.6 ESE 7 15 4 8 1019.0 1018.9 0.2
21/12:00am 15.3 12.6 7.3 59 3.9 ESE 11 17 6 9 1019.4 1019.3 0.2
 
Date/Time
CDT
Temp
°C
App
Temp
°C
Dew
Point
°C
Rel
Hum
%
Delta-T
°C
Wind Press
QNH
hPa
Press
MSL
hPa
Rain since
9am
mm
Dir  Spd
km/h
Gust
km/h
Spd
kts
Gust
kts
20/11:30pm 15.4 12.2 6.9 57 4.2 ESE 13 17 7 9 1019.3 1019.2 0.2
20/11:00pm 15.4 12.2 6.9 57 4.2 ESE 13 19 7 10 1019.4 1019.3 0.2
20/10:30pm 15.8 13.0 7.1 56 4.3 SE 11 17 6 9 1019.3 1019.2 0.2
20/10:00pm 16.3 12.8 7.0 54 4.6 ESE 15 20 8 11 1019.1 1019.0 0.2
20/09:30pm 17.0 13.9 7.1 52 4.9 ESE 13 22 7 12 1018.8 1018.7 0.2
20/09:00pm 17.8 15.0 8.4 54 4.8 SSE 13 19 7 10 1018.5 1018.4 0.2
20/08:30pm 17.3 14.7 9.2 59 4.2 SW 13 17 7 9 1018.3 1018.2 0.2
20/08:00pm 18.1 14.6 8.9 55 4.8 SW 17 24 9 13 1018.1 1018.0 0.2
20/07:30pm 19.0 14.5 8.4 50 5.5 SW 22 26 12 14 1017.7 1017.6 0.2
20/07:00pm 19.9 15.2 7.9 46 6.2 SW 22 28 12 15 1017.3 1017.2 0.2
20/06:30pm 20.5 15.7 7.2 42 6.8 WSW 22 30 12 16 1017.1 1017.0 0.2
20/06:00pm 21.2 16.3 7.1 40 7.2 WSW 22 30 12 16 1016.9 1016.8 0.2
20/05:30pm 21.0 15.7 6.9 40 7.2 WSW 24 32 13 17 1017.0 1016.9 0.2

Other Formats:

Comma delimited format used in spreadsheet applications
http://www.bom.gov.au/fwo/IDS60801/IDS60801.95676.axf

JavaScript Object Notation format (JSON) in row-major order
http://www.bom.gov.au/fwo/IDS60801/IDS60801.95676.json